sensor_id;sensor_type;location;lat;lon;timestamp;pressure;altitude;pressure_sealevel;temperature;humidity
73748;BME280;62056;52.130;5.428;2023-06-22T00:01:20;102154.50;;;21.37;56.44
73748;BME280;62056;52.130;5.428;2023-06-22T00:03:49;102149.16;;;21.28;57.10
73748;BME280;62056;52.130;5.428;2023-06-22T00:06:16;102147.44;;;21.23;56.90
73748;BME280;62056;52.130;5.428;2023-06-22T00:08:43;102151.72;;;21.25;56.43
73748;BME280;62056;52.130;5.428;2023-06-22T00:11:09;102157.59;;;21.27;56.47
73748;BME280;62056;52.130;5.428;2023-06-22T00:13:37;102161.91;;;21.28;56.34
73748;BME280;62056;52.130;5.428;2023-06-22T00:16:04;102154.31;;;21.21;56.95
73748;BME280;62056;52.130;5.428;2023-06-22T00:18:31;102155.25;;;21.16;57.53
73748;BME280;62056;52.130;5.428;2023-06-22T00:20:59;102149.38;;;21.14;57.58
73748;BME280;62056;52.130;5.428;2023-06-22T00:23:26;102155.31;;;21.08;57.88
73748;BME280;62056;52.130;5.428;2023-06-22T00:25:53;102158.22;;;21.02;58.45
73748;BME280;62056;52.130;5.428;2023-06-22T00:28:19;102158.38;;;20.97;58.98
73748;BME280;62056;52.130;5.428;2023-06-22T00:30:48;102142.97;;;20.89;59.24
73748;BME280;62056;52.130;5.428;2023-06-22T00:33:15;102142.72;;;20.82;59.89
73748;BME280;62056;52.130;5.428;2023-06-22T00:35:42;102145.09;;;20.75;60.56
73748;BME280;62056;52.130;5.428;2023-06-22T00:38:09;102136.06;;;20.71;61.18
73748;BME280;62056;52.130;5.428;2023-06-22T00:40:37;102133.53;;;20.66;61.54
73748;BME280;62056;52.130;5.428;2023-06-22T00:43:05;102133.25;;;20.58;62.22
73748;BME280;62056;52.130;5.428;2023-06-22T00:45:32;102137.03;;;20.57;61.34
73748;BME280;62056;52.130;5.428;2023-06-22T00:47:59;102133.88;;;20.55;60.94
73748;BME280;62056;52.130;5.428;2023-06-22T00:50:29;102125.94;;;20.50;61.38
73748;BME280;62056;52.130;5.428;2023-06-22T00:53:06;102126.41;;;20.43;61.54
73748;BME280;62056;52.130;5.428;2023-06-22T00:55:36;102131.34;;;20.41;61.48
73748;BME280;62056;52.130;5.428;2023-06-22T00:58:06;102129.78;;;20.40;61.00
73748;BME280;62056;52.130;5.428;2023-06-22T01:00:38;102130.72;;;20.45;60.63
73748;BME280;62056;52.130;5.428;2023-06-22T01:03:05;102125.31;;;20.45;60.50
73748;BME280;62056;52.130;5.428;2023-06-22T01:05:36;102125.94;;;20.41;60.83
73748;BME280;62056;52.130;5.428;2023-06-22T01:08:31;102119.47;;;20.34;63.06
73748;BME280;62056;52.130;5.428;2023-06-22T01:11:23;102118.38;;;20.26;62.54
73748;BME280;62056;52.130;5.428;2023-06-22T01:14:15;102128.06;;;20.27;62.64
73748;BME280;62056;52.130;5.428;2023-06-22T01:16:46;102139.34;;;20.29;61.19
73748;BME280;62056;52.130;5.428;2023-06-22T01:19:35;102137.91;;;20.32;61.07
73748;BME280;62056;52.130;5.428;2023-06-22T01:22:05;102139.47;;;20.33;60.45
73748;BME280;62056;52.130;5.428;2023-06-22T01:24:45;102136.31;;;20.31;60.50
73748;BME280;62056;52.130;5.428;2023-06-22T01:30:14;102127.31;;;20.00;62.76
73748;BME280;62056;52.130;5.428;2023-06-22T01:32:44;102123.34;;;19.98;62.50
73748;BME280;62056;52.130;5.428;2023-06-22T01:35:12;102125.41;;;20.01;62.03
73748;BME280;62056;52.130;5.428;2023-06-22T01:37:39;102125.09;;;20.02;61.58
73748;BME280;62056;52.130;5.428;2023-06-22T01:40:07;102125.56;;;20.05;61.70
73748;BME280;62056;52.130;5.428;2023-06-22T01:42:36;102125.56;;;20.05;61.49
73748;BME280;62056;52.130;5.428;2023-06-22T01:45:05;102122.03;;;20.04;61.45
73748;BME280;62056;52.130;5.428;2023-06-22T01:47:33;102121.56;;;20.02;61.03
73748;BME280;62056;52.130;5.428;2023-06-22T01:50:00;102120.78;;;20.01;60.72
73748;BME280;62056;52.130;5.428;2023-06-22T01:52:27;102120.47;;;19.94;61.23
73748;BME280;62056;52.130;5.428;2023-06-22T01:54:57;102125.06;;;19.85;62.58
73748;BME280;62056;52.130;5.428;2023-06-22T01:57:27;102118.91;;;19.76;63.28
73748;BME280;62056;52.130;5.428;2023-06-22T02:02:24;102120.13;;;19.61;63.95
73748;BME280;62056;52.130;5.428;2023-06-22T02:04:59;102118.88;;;19.58;63.68
73748;BME280;62056;52.130;5.428;2023-06-22T02:07:33;102116.16;;;19.50;65.38
73748;BME280;62056;52.130;5.428;2023-06-22T02:10:02;102114.09;;;19.47;64.32
73748;BME280;62056;52.130;5.428;2023-06-22T02:12:32;102107.75;;;19.42;64.51
73748;BME280;62056;52.130;5.428;2023-06-22T02:15:00;102108.03;;;19.41;64.57
73748;BME280;62056;52.130;5.428;2023-06-22T02:17:27;102108.69;;;19.38;64.69
73748;BME280;62056;52.130;5.428;2023-06-22T02:19:54;102106.78;;;19.38;64.51
73748;BME280;62056;52.130;5.428;2023-06-22T02:22:21;102105.03;;;19.42;63.93
73748;BME280;62056;52.130;5.428;2023-06-22T02:24:48;102111.22;;;19.43;63.86
73748;BME280;62056;52.130;5.428;2023-06-22T02:27:15;102111.38;;;19.38;64.26
73748;BME280;62056;52.130;5.428;2023-06-22T02:29:41;102099.78;;;19.29;64.78
73748;BME280;62056;52.130;5.428;2023-06-22T02:32:08;102108.81;;;19.24;65.05
73748;BME280;62056;52.130;5.428;2023-06-22T02:34:38;102113.72;;;19.22;64.90
73748;BME280;62056;52.130;5.428;2023-06-22T02:37:05;102114.69;;;19.26;64.19
73748;BME280;62056;52.130;5.428;2023-06-22T02:39:31;102111.38;;;19.29;63.82
73748;BME280;62056;52.130;5.428;2023-06-22T02:41:58;102106.28;;;19.28;64.31
73748;BME280;62056;52.130;5.428;2023-06-22T02:44:25;102109.28;;;19.26;64.12
73748;BME280;62056;52.130;5.428;2023-06-22T02:46:52;102104.38;;;19.28;63.63
73748;BME280;62056;52.130;5.428;2023-06-22T02:49:18;102107.38;;;19.27;63.59
73748;BME280;62056;52.130;5.428;2023-06-22T02:51:47;102102.47;;;19.20;64.40
73748;BME280;62056;52.130;5.428;2023-06-22T02:54:14;102095.31;;;19.15;64.76
73748;BME280;62056;52.130;5.428;2023-06-22T02:56:41;102098.97;;;19.11;64.84
73748;BME280;62056;52.130;5.428;2023-06-22T02:59:10;102095.59;;;19.05;65.27
73748;BME280;62056;52.130;5.428;2023-06-22T03:01:37;102103.84;;;19.00;65.92
73748;BME280;62056;52.130;5.428;2023-06-22T03:04:08;102099.22;;;18.92;66.28
73748;BME280;62056;52.130;5.428;2023-06-22T03:06:36;102102.84;;;18.87;66.37
73748;BME280;62056;52.130;5.428;2023-06-22T03:09:04;102106.66;;;18.86;66.78
73748;BME280;62056;52.130;5.428;2023-06-22T03:11:32;102108.88;;;18.84;66.80
73748;BME280;62056;52.130;5.428;2023-06-22T03:14:00;102117.38;;;18.77;66.87
73748;BME280;62056;52.130;5.428;2023-06-22T03:16:27;102105.63;;;18.73;67.23
73748;BME280;62056;52.130;5.428;2023-06-22T03:18:55;102114.31;;;18.70;67.07
73748;BME280;62056;52.130;5.428;2023-06-22T03:21:23;102116.03;;;18.66;67.35
73748;BME280;62056;52.130;5.428;2023-06-22T03:23:50;102107.97;;;18.66;66.96
73748;BME280;62056;52.130;5.428;2023-06-22T03:26:17;102111.13;;;18.68;66.83
73748;BME280;62056;52.130;5.428;2023-06-22T03:28:44;102109.56;;;18.67;66.49
73748;BME280;62056;52.130;5.428;2023-06-22T03:31:11;102094.44;;;18.57;67.48
73748;BME280;62056;52.130;5.428;2023-06-22T03:33:38;102087.91;;;18.50;67.82
73748;BME280;62056;52.130;5.428;2023-06-22T03:36:06;102092.97;;;18.43;68.76
73748;BME280;62056;52.130;5.428;2023-06-22T03:38:33;102089.78;;;18.40;68.97
73748;BME280;62056;52.130;5.428;2023-06-22T03:41:00;102080.44;;;18.38;68.59
73748;BME280;62056;52.130;5.428;2023-06-22T03:43:27;102084.53;;;18.35;68.55
73748;BME280;62056;52.130;5.428;2023-06-22T03:45:53;102087.22;;;18.35;68.38
73748;BME280;62056;52.130;5.428;2023-06-22T03:48:20;102087.09;;;18.40;68.06
73748;BME280;62056;52.130;5.428;2023-06-22T03:50:47;102085.38;;;18.45;67.59
73748;BME280;62056;52.130;5.428;2023-06-22T03:53:14;102083.94;;;18.47;67.35
73748;BME280;62056;52.130;5.428;2023-06-22T03:55:48;102079.69;;;18.46;68.28
73748;BME280;62056;52.130;5.428;2023-06-22T03:58:17;102073.63;;;18.40;68.03
73748;BME280;62056;52.130;5.428;2023-06-22T04:00:52;102076.56;;;18.30;69.10
73748;BME280;62056;52.130;5.428;2023-06-22T04:03:19;102076.22;;;18.23;69.38
73748;BME280;62056;52.130;5.428;2023-06-22T04:05:47;102068.25;;;18.18;69.77
73748;BME280;62056;52.130;5.428;2023-06-22T04:08:14;102076.00;;;18.11;70.56
73748;BME280;62056;52.130;5.428;2023-06-22T04:10:41;102076.09;;;18.06;70.88
73748;BME280;62056;52.130;5.428;2023-06-22T04:13:08;102072.75;;;18.00;71.70
73748;BME280;62056;52.130;5.428;2023-06-22T04:15:35;102073.06;;;17.98;71.79
73748;BME280;62056;52.130;5.428;2023-06-22T04:18:02;102071.16;;;17.99;71.47
73748;BME280;62056;52.130;5.428;2023-06-22T04:20:31;102068.47;;;17.99;71.77
73748;BME280;62056;52.130;5.428;2023-06-22T04:22:59;102067.38;;;18.00;71.37
73748;BME280;62056;52.130;5.428;2023-06-22T04:25:25;102070.72;;;18.06;71.05
73748;BME280;62056;52.130;5.428;2023-06-22T04:27:52;102067.09;;;18.10;70.69
73748;BME280;62056;52.130;5.428;2023-06-22T04:30:20;102059.69;;;18.16;70.46
73748;BME280;62056;52.130;5.428;2023-06-22T04:32:47;102063.84;;;18.22;70.18
73748;BME280;62056;52.130;5.428;2023-06-22T04:35:23;102066.72;;;18.26;70.45
73748;BME280;62056;52.130;5.428;2023-06-22T04:37:52;102068.50;;;18.30;70.14
73748;BME280;62056;52.130;5.428;2023-06-22T04:40:23;102061.69;;;18.33;69.79
73748;BME280;62056;52.130;5.428;2023-06-22T04:42:50;102058.41;;;18.36;70.15
73748;BME280;62056;52.130;5.428;2023-06-22T04:45:20;102060.16;;;18.40;70.39
73748;BME280;62056;52.130;5.428;2023-06-22T04:47:48;102066.81;;;18.43;70.07
73748;BME280;62056;52.130;5.428;2023-06-22T04:50:15;102064.59;;;18.45;69.94
73748;BME280;62056;52.130;5.428;2023-06-22T04:52:43;102062.09;;;18.49;69.71
73748;BME280;62056;52.130;5.428;2023-06-22T04:55:10;102066.53;;;18.53;69.38
73748;BME280;62056;52.130;5.428;2023-06-22T04:57:40;102075.91;;;18.56;69.70
73748;BME280;62056;52.130;5.428;2023-06-22T05:00:07;102075.28;;;18.59;69.84
73748;BME280;62056;52.130;5.428;2023-06-22T05:02:44;102075.78;;;18.61;70.10
73748;BME280;62056;52.130;5.428;2023-06-22T05:05:13;102076.75;;;18.65;70.27
73748;BME280;62056;52.130;5.428;2023-06-22T05:07:44;102077.88;;;18.73;70.74
73748;BME280;62056;52.130;5.428;2023-06-22T05:10:13;102075.34;;;18.76;70.22
73748;BME280;62056;52.130;5.428;2023-06-22T05:12:40;102079.81;;;18.81;70.47
73748;BME280;62056;52.130;5.428;2023-06-22T05:15:08;102074.00;;;18.88;70.18
73748;BME280;62056;52.130;5.428;2023-06-22T05:17:36;102071.78;;;18.90;70.62
73748;BME280;62056;52.130;5.428;2023-06-22T05:20:10;102068.47;;;18.93;70.79
73748;BME280;62056;52.130;5.428;2023-06-22T05:22:38;102073.53;;;18.94;70.83
73748;BME280;62056;52.130;5.428;2023-06-22T05:25:08;102077.19;;;18.98;71.32
73748;BME280;62056;52.130;5.428;2023-06-22T05:27:36;102069.44;;;19.06;71.15
73748;BME280;62056;52.130;5.428;2023-06-22T05:30:07;102074.69;;;19.11;72.36
73748;BME280;62056;52.130;5.428;2023-06-22T05:32:35;102071.66;;;19.12;72.99
73748;BME280;62056;52.130;5.428;2023-06-22T05:35:03;102073.28;;;19.22;74.07
73748;BME280;62056;52.130;5.428;2023-06-22T05:37:30;102077.75;;;19.35;75.00
73748;BME280;62056;52.130;5.428;2023-06-22T05:39:57;102081.88;;;19.50;75.36
73748;BME280;62056;52.130;5.428;2023-06-22T05:42:25;102079.03;;;19.64;75.51
73748;BME280;62056;52.130;5.428;2023-06-22T05:44:53;102077.28;;;19.77;75.04
73748;BME280;62056;52.130;5.428;2023-06-22T05:47:20;102075.69;;;19.93;74.57
73748;BME280;62056;52.130;5.428;2023-06-22T05:49:46;102075.06;;;20.05;74.22
73748;BME280;62056;52.130;5.428;2023-06-22T05:52:13;102072.78;;;20.16;73.64
73748;BME280;62056;52.130;5.428;2023-06-22T05:54:40;102075.94;;;20.27;73.49
73748;BME280;62056;52.130;5.428;2023-06-22T05:57:08;102077.81;;;20.35;73.14
73748;BME280;62056;52.130;5.428;2023-06-22T05:59:35;102085.31;;;20.38;73.15
73748;BME280;62056;52.130;5.428;2023-06-22T06:02:02;102085.59;;;20.45;73.55
73748;BME280;62056;52.130;5.428;2023-06-22T06:04:33;102084.44;;;20.64;74.36
73748;BME280;62056;52.130;5.428;2023-06-22T06:07:00;102084.97;;;20.87;74.67
73748;BME280;62056;52.130;5.428;2023-06-22T06:09:27;102075.78;;;21.09;74.75
73748;BME280;62056;52.130;5.428;2023-06-22T06:11:56;102071.97;;;21.31;73.99
73748;BME280;62056;52.130;5.428;2023-06-22T06:14:22;102073.59;;;21.53;73.58
73748;BME280;62056;52.130;5.428;2023-06-22T06:16:49;102076.59;;;21.72;73.06
73748;BME280;62056;52.130;5.428;2023-06-22T06:19:16;102067.19;;;21.91;72.23
73748;BME280;62056;52.130;5.428;2023-06-22T06:21:43;102059.78;;;22.12;72.28
73748;BME280;62056;52.130;5.428;2023-06-22T06:24:11;102060.09;;;22.32;71.58
73748;BME280;62056;52.130;5.428;2023-06-22T06:26:38;102066.44;;;22.48;70.84
73748;BME280;62056;52.130;5.428;2023-06-22T06:29:07;102062.25;;;22.63;70.45
73748;BME280;62056;52.130;5.428;2023-06-22T06:31:34;102061.56;;;22.78;69.75
73748;BME280;62056;52.130;5.428;2023-06-22T06:34:00;102059.41;;;22.96;69.71
73748;BME280;62056;52.130;5.428;2023-06-22T06:36:27;102056.59;;;23.05;69.28
73748;BME280;62056;52.130;5.428;2023-06-22T06:38:54;102051.94;;;23.18;69.46
73748;BME280;62056;52.130;5.428;2023-06-22T06:41:21;102050.09;;;23.22;67.66
73748;BME280;62056;52.130;5.428;2023-06-22T06:43:48;102052.00;;;23.34;67.13
73748;BME280;62056;52.130;5.428;2023-06-22T06:46:21;102048.81;;;23.44;67.76
73748;BME280;62056;52.130;5.428;2023-06-22T06:48:48;102049.09;;;23.55;68.30
73748;BME280;62056;52.130;5.428;2023-06-22T06:51:15;102050.00;;;23.75;67.94
73748;BME280;62056;52.130;5.428;2023-06-22T06:53:41;102055.69;;;23.98;66.81
73748;BME280;62056;52.130;5.428;2023-06-22T06:56:08;102041.44;;;24.17;66.51
73748;BME280;62056;52.130;5.428;2023-06-22T06:58:41;102042.41;;;24.40;66.17
73748;BME280;62056;52.130;5.428;2023-06-22T07:01:09;102047.22;;;24.47;65.07
73748;BME280;62056;52.130;5.428;2023-06-22T07:03:35;102040.03;;;24.55;64.60
73748;BME280;62056;52.130;5.428;2023-06-22T07:06:02;102041.06;;;24.66;64.41
73748;BME280;62056;52.130;5.428;2023-06-22T07:08:29;102031.84;;;24.71;63.76
73748;BME280;62056;52.130;5.428;2023-06-22T07:10:57;102036.72;;;24.81;63.62
73748;BME280;62056;52.130;5.428;2023-06-22T07:13:23;102037.34;;;24.90;62.87
73748;BME280;62056;52.130;5.428;2023-06-22T07:15:50;102038.66;;;24.96;62.23
73748;BME280;62056;52.130;5.428;2023-06-22T07:18:17;102035.91;;;24.96;61.96
73748;BME280;62056;52.130;5.428;2023-06-22T07:20:44;102035.63;;;25.01;62.13
73748;BME280;62056;52.130;5.428;2023-06-22T07:23:11;102040.81;;;25.07;61.44
73748;BME280;62056;52.130;5.428;2023-06-22T07:25:37;102032.78;;;25.14;61.17
73748;BME280;62056;52.130;5.428;2023-06-22T07:28:07;102030.13;;;25.17;60.01
73748;BME280;62056;52.130;5.428;2023-06-22T07:30:34;102043.31;;;25.15;60.44
73748;BME280;62056;52.130;5.428;2023-06-22T07:33:02;102043.13;;;25.24;60.11
73748;BME280;62056;52.130;5.428;2023-06-22T07:35:30;102048.09;;;25.38;59.54
73748;BME280;62056;52.130;5.428;2023-06-22T07:37:58;102036.63;;;25.48;59.14
73748;BME280;62056;52.130;5.428;2023-06-22T07:40:26;102027.88;;;25.58;58.84
73748;BME280;62056;52.130;5.428;2023-06-22T07:42:54;102027.66;;;25.71;58.48
73748;BME280;62056;52.130;5.428;2023-06-22T07:45:21;102024.16;;;25.70;57.70
73748;BME280;62056;52.130;5.428;2023-06-22T07:47:48;102020.25;;;25.68;57.77
73748;BME280;62056;52.130;5.428;2023-06-22T07:50:16;102016.84;;;25.74;57.22
73748;BME280;62056;52.130;5.428;2023-06-22T07:52:43;102008.69;;;25.74;56.80
73748;BME280;62056;52.130;5.428;2023-06-22T07:55:10;102013.34;;;25.74;56.64
73748;BME280;62056;52.130;5.428;2023-06-22T07:57:37;102015.22;;;25.70;56.56
73748;BME280;62056;52.130;5.428;2023-06-22T08:00:05;102021.38;;;25.67;56.94
73748;BME280;62056;52.130;5.428;2023-06-22T08:03:13;102007.41;;;25.68;56.36
73748;BME280;62056;52.130;5.428;2023-06-22T08:05:47;102009.78;;;25.70;56.66
73748;BME280;62056;52.130;5.428;2023-06-22T08:08:15;102002.72;;;25.69;56.26
73748;BME280;62056;52.130;5.428;2023-06-22T08:10:43;101997.34;;;25.72;56.09
73748;BME280;62056;52.130;5.428;2023-06-22T08:13:10;101993.84;;;25.72;56.09
73748;BME280;62056;52.130;5.428;2023-06-22T08:15:43;101991.25;;;25.79;55.94
73748;BME280;62056;52.130;5.428;2023-06-22T08:18:10;101989.44;;;25.87;55.45
73748;BME280;62056;52.130;5.428;2023-06-22T08:20:36;101979.41;;;25.91;55.38
73748;BME280;62056;52.130;5.428;2023-06-22T08:23:03;101977.47;;;25.91;55.06
73748;BME280;62056;52.130;5.428;2023-06-22T08:25:33;101980.59;;;25.90;55.15
73748;BME280;62056;52.130;5.428;2023-06-22T08:28:01;101970.00;;;25.88;54.58
73748;BME280;62056;52.130;5.428;2023-06-22T08:30:29;101958.94;;;25.77;54.05
73748;BME280;62056;52.130;5.428;2023-06-22T08:33:03;101964.44;;;25.81;54.53
73748;BME280;62056;52.130;5.428;2023-06-22T08:35:32;101950.50;;;25.86;54.32
73748;BME280;62056;52.130;5.428;2023-06-22T08:37:59;101953.78;;;25.95;53.87
73748;BME280;62056;52.130;5.428;2023-06-22T08:40:26;101952.28;;;25.98;53.68
73748;BME280;62056;52.130;5.428;2023-06-22T08:42:53;101949.25;;;26.03;53.19
73748;BME280;62056;52.130;5.428;2023-06-22T08:45:20;101946.28;;;26.12;53.01
73748;BME280;62056;52.130;5.428;2023-06-22T08:47:47;101946.31;;;26.15;52.73
73748;BME280;62056;52.130;5.428;2023-06-22T08:50:14;101946.75;;;26.17;52.52
73748;BME280;62056;52.130;5.428;2023-06-22T08:52:41;101945.31;;;26.27;52.49
73748;BME280;62056;52.130;5.428;2023-06-22T08:55:10;101931.44;;;26.36;51.83
73748;BME280;62056;52.130;5.428;2023-06-22T08:57:39;101942.44;;;26.43;51.72
73748;BME280;62056;52.130;5.428;2023-06-22T09:00:07;101934.81;;;26.56;51.81
73748;BME280;62056;52.130;5.428;2023-06-22T09:02:44;101943.97;;;26.67;51.54
73748;BME280;62056;52.130;5.428;2023-06-22T09:05:11;101944.09;;;26.78;51.28
73748;BME280;62056;52.130;5.428;2023-06-22T09:07:38;101943.72;;;26.79;49.09
73748;BME280;62056;52.130;5.428;2023-06-22T09:10:06;101939.84;;;26.80;48.92
73748;BME280;62056;52.130;5.428;2023-06-22T09:12:33;101944.56;;;26.83;49.00
73748;BME280;62056;52.130;5.428;2023-06-22T09:15:00;101935.63;;;26.87;47.74
73748;BME280;62056;52.130;5.428;2023-06-22T09:17:27;101938.47;;;26.97;47.89
73748;BME280;62056;52.130;5.428;2023-06-22T09:19:54;101930.78;;;27.07;46.77
73748;BME280;62056;52.130;5.428;2023-06-22T09:22:21;101930.13;;;27.17;48.08
73748;BME280;62056;52.130;5.428;2023-06-22T09:24:48;101927.03;;;27.22;46.59
73748;BME280;62056;52.130;5.428;2023-06-22T09:27:15;101934.94;;;27.31;47.51
73748;BME280;62056;52.130;5.428;2023-06-22T09:29:42;101929.59;;;27.41;47.87
73748;BME280;62056;52.130;5.428;2023-06-22T09:32:09;101939.09;;;27.55;47.44
73748;BME280;62056;52.130;5.428;2023-06-22T09:34:40;101940.38;;;27.68;47.17
73748;BME280;62056;52.130;5.428;2023-06-22T09:37:08;101931.06;;;27.76;47.01
73748;BME280;62056;52.130;5.428;2023-06-22T09:39:35;101927.19;;;27.81;46.47
73748;BME280;62056;52.130;5.428;2023-06-22T09:42:03;101931.56;;;27.89;46.14
73748;BME280;62056;52.130;5.428;2023-06-22T09:44:32;101931.25;;;27.98;46.45
73748;BME280;62056;52.130;5.428;2023-06-22T09:46:59;101925.44;;;28.03;46.08
73748;BME280;62056;52.130;5.428;2023-06-22T09:49:26;101924.72;;;28.13;45.86
73748;BME280;62056;52.130;5.428;2023-06-22T09:52:12;101922.47;;;28.30;45.60
73748;BME280;62056;52.130;5.428;2023-06-22T09:54:39;101920.53;;;28.30;45.62
73748;BME280;62056;52.130;5.428;2023-06-22T09:57:06;101917.41;;;28.35;45.27
73748;BME280;62056;52.130;5.428;2023-06-22T09:59:33;101916.22;;;28.33;45.09
73748;BME280;62056;52.130;5.428;2023-06-22T10:02:00;101910.78;;;28.33;45.21
73748;BME280;62056;52.130;5.428;2023-06-22T10:04:27;101924.81;;;28.31;44.82
73748;BME280;62056;52.130;5.428;2023-06-22T10:06:55;101918.53;;;28.23;44.38
73748;BME280;62056;52.130;5.428;2023-06-22T10:09:25;101921.66;;;28.22;44.39
73748;BME280;62056;52.130;5.428;2023-06-22T10:11:53;101924.75;;;28.20;44.32
73748;BME280;62056;52.130;5.428;2023-06-22T10:14:20;101920.84;;;28.18;44.42
73748;BME280;62056;52.130;5.428;2023-06-22T10:16:48;101926.69;;;28.16;44.22
73748;BME280;62056;52.130;5.428;2023-06-22T10:19:15;101911.06;;;28.13;44.50
73748;BME280;62056;52.130;5.428;2023-06-22T10:21:42;101912.16;;;28.01;44.20
73748;BME280;62056;52.130;5.428;2023-06-22T10:24:08;101910.56;;;27.97;44.17
73748;BME280;62056;52.130;5.428;2023-06-22T10:26:36;101915.19;;;27.89;44.17
73748;BME280;62056;52.130;5.428;2023-06-22T10:29:05;101913.94;;;27.83;44.10
73748;BME280;62056;52.130;5.428;2023-06-22T10:31:43;101920.91;;;27.77;43.44
73748;BME280;62056;52.130;5.428;2023-06-22T10:34:10;101917.78;;;27.75;44.12
73748;BME280;62056;52.130;5.428;2023-06-22T10:36:36;101918.19;;;27.73;44.04
73748;BME280;62056;52.130;5.428;2023-06-22T10:39:04;101917.72;;;27.68;43.79
73748;BME280;62056;52.130;5.428;2023-06-22T10:41:30;101923.13;;;27.60;44.02
73748;BME280;62056;52.130;5.428;2023-06-22T10:43:58;101920.38;;;27.57;43.82
73748;BME280;62056;52.130;5.428;2023-06-22T10:46:25;101915.66;;;27.54;43.94
73748;BME280;62056;52.130;5.428;2023-06-22T10:48:54;101917.56;;;27.50;43.84
73748;BME280;62056;52.130;5.428;2023-06-22T10:51:23;101913.28;;;27.49;43.88
73748;BME280;62056;52.130;5.428;2023-06-22T10:53:53;101919.53;;;27.49;43.84
73748;BME280;62056;52.130;5.428;2023-06-22T10:56:20;101916.84;;;27.53;43.89
73748;BME280;62056;52.130;5.428;2023-06-22T10:58:47;101914.09;;;27.53;43.99
73748;BME280;62056;52.130;5.428;2023-06-22T11:01:13;101925.75;;;27.50;43.72
73748;BME280;62056;52.130;5.428;2023-06-22T11:04:02;101919.13;;;27.47;43.83
73748;BME280;62056;52.130;5.428;2023-06-22T11:06:33;101917.97;;;27.52;44.02
73748;BME280;62056;52.130;5.428;2023-06-22T11:09:00;101919.19;;;27.54;44.06
73748;BME280;62056;52.130;5.428;2023-06-22T11:11:48;101912.97;;;27.57;44.21
73748;BME280;62056;52.130;5.428;2023-06-22T11:14:20;101911.41;;;27.56;44.03
73748;BME280;62056;52.130;5.428;2023-06-22T11:16:48;101904.41;;;27.59;44.18
73748;BME280;62056;52.130;5.428;2023-06-22T11:19:15;101904.72;;;27.54;44.20
73748;BME280;62056;52.130;5.428;2023-06-22T11:21:42;101896.16;;;27.55;44.21
73748;BME280;62056;52.130;5.428;2023-06-22T11:24:09;101905.13;;;27.52;44.06
73748;BME280;62056;52.130;5.428;2023-06-22T11:26:36;101906.31;;;27.55;44.58
73748;BME280;62056;52.130;5.428;2023-06-22T11:29:03;101895.44;;;27.62;44.13
73748;BME280;62056;52.130;5.428;2023-06-22T11:31:41;101898.25;;;27.69;44.82
73748;BME280;62056;52.130;5.428;2023-06-22T11:34:10;101887.34;;;27.76;44.26
73748;BME280;62056;52.130;5.428;2023-06-22T11:36:37;101888.16;;;27.80;44.60
73748;BME280;62056;52.130;5.428;2023-06-22T11:39:04;101881.22;;;27.87;44.71
73748;BME280;62056;52.130;5.428;2023-06-22T11:41:34;101874.63;;;27.95;44.95
73748;BME280;62056;52.130;5.428;2023-06-22T11:44:04;101879.72;;;28.00;45.09
73748;BME280;62056;52.130;5.428;2023-06-22T11:46:34;101868.03;;;28.03;45.36
73748;BME280;62056;52.130;5.428;2023-06-22T11:49:09;101858.69;;;28.08;45.78
73748;BME280;62056;52.130;5.428;2023-06-22T11:51:59;101864.59;;;28.17;46.02
73748;BME280;62056;52.130;5.428;2023-06-22T11:54:25;101866.53;;;28.16;45.79
73748;BME280;62056;52.130;5.428;2023-06-22T11:56:55;101876.25;;;28.10;45.54
73748;BME280;62056;52.130;5.428;2023-06-22T11:59:28;101863.66;;;27.88;45.11
73748;BME280;62056;52.130;5.428;2023-06-22T12:02:07;101863.59;;;27.84;45.59
73748;BME280;62056;52.130;5.428;2023-06-22T12:05:13;101868.31;;;27.87;45.56
73748;BME280;62056;52.130;5.428;2023-06-22T12:07:42;101863.94;;;27.75;45.47
73748;BME280;62056;52.130;5.428;2023-06-22T12:10:11;101861.97;;;27.76;45.92
73748;BME280;62056;52.130;5.428;2023-06-22T12:12:41;101851.06;;;27.76;45.73
73748;BME280;62056;52.130;5.428;2023-06-22T12:15:10;101862.31;;;27.67;45.78
73748;BME280;62056;52.130;5.428;2023-06-22T12:17:41;101853.66;;;27.58;46.23
73748;BME280;62056;52.130;5.428;2023-06-22T12:20:09;101856.38;;;27.54;46.16
73748;BME280;62056;52.130;5.428;2023-06-22T12:23:32;101853.69;;;27.61;47.81
73748;BME280;62056;52.130;5.428;2023-06-22T12:26:02;101853.31;;;27.66;46.75
73748;BME280;62056;52.130;5.428;2023-06-22T12:28:29;101863.09;;;27.68;47.31
73748;BME280;62056;52.130;5.428;2023-06-22T12:30:56;101852.13;;;27.64;48.64
73748;BME280;62056;52.130;5.428;2023-06-22T12:33:23;101855.19;;;27.55;48.19
73748;BME280;62056;52.130;5.428;2023-06-22T12:35:52;101850.47;;;27.49;48.99
73748;BME280;62056;52.130;5.428;2023-06-22T12:38:41;101848.06;;;27.43;50.64
73748;BME280;62056;52.130;5.428;2023-06-22T12:41:33;101846.06;;;27.37;49.75
73748;BME280;62056;52.130;5.428;2023-06-22T12:44:06;101850.72;;;27.33;49.71
73748;BME280;62056;52.130;5.428;2023-06-22T12:46:38;101845.22;;;27.29;49.86
73748;BME280;62056;52.130;5.428;2023-06-22T12:49:10;101832.69;;;27.24;49.79
73748;BME280;62056;52.130;5.428;2023-06-22T12:51:41;101835.44;;;27.24;49.83
73748;BME280;62056;52.130;5.428;2023-06-22T12:54:23;101831.84;;;27.20;49.40
73748;BME280;62056;52.130;5.428;2023-06-22T12:56:55;101831.06;;;27.20;49.94
73748;BME280;62056;52.130;5.428;2023-06-22T12:59:23;101829.13;;;27.17;49.42
73748;BME280;62056;52.130;5.428;2023-06-22T13:01:49;101822.06;;;27.16;48.91
73748;BME280;62056;52.130;5.428;2023-06-22T13:04:16;101827.91;;;27.14;49.24
73748;BME280;62056;52.130;5.428;2023-06-22T13:06:56;101823.63;;;27.13;49.10